createdAt,value
2019-02-22T00:01:43.100Z,102507.19
2019-02-22T00:06:45.771Z,102528.83
2019-02-22T00:11:48.444Z,102538.35
2019-02-22T00:16:51.093Z,102537.86
2019-02-22T00:21:53.759Z,102555.15
2019-02-22T00:26:56.426Z,102564.14
2019-02-22T00:31:59.088Z,102576.50
2019-02-22T00:37:01.840Z,102599.14
2019-02-22T00:42:04.476Z,102607.34
2019-02-22T00:47:07.142Z,102626.83
2019-02-22T00:52:09.787Z,102640.20
2019-02-22T00:57:12.452Z,102654.54
2019-02-22T01:02:15.151Z,102677.58
2019-02-22T01:07:17.820Z,102684.80
2019-02-22T01:12:20.521Z,102710.31
2019-02-22T01:17:23.192Z,102712.48
2019-02-22T01:22:25.873Z,102723.77
2019-02-22T01:27:28.580Z,102744.63
2019-02-22T01:32:31.264Z,102764.80
2019-02-22T01:37:33.914Z,102778.75
2019-02-22T01:42:36.583Z,102775.33
2019-02-22T01:47:39.284Z,102784.92
2019-02-22T01:52:41.947Z,102806.52
2019-02-22T01:57:44.620Z,102822.24
2019-02-22T02:02:47.271Z,102827.20
2019-02-22T02:12:51.707Z,102875.66
2019-02-22T02:17:54.375Z,102896.14
2019-02-22T02:27:58.869Z,102907.56
2019-02-22T02:33:01.542Z,102922.95
2019-02-22T02:38:04.220Z,102948.03
2019-02-22T02:43:06.952Z,102961.98
2019-02-22T02:48:09.635Z,102963.17
2019-02-22T02:53:12.294Z,102980.20
2019-02-22T02:58:14.961Z,102986.23
2019-02-22T03:03:17.629Z,102996.72
2019-02-22T03:08:20.843Z,103001.28
2019-02-22T03:13:23.529Z,103022.95
2019-02-22T03:18:26.204Z,103034.34
2019-02-22T03:23:28.877Z,103033.87
2019-02-22T03:28:31.550Z,103056.59
2019-02-22T03:33:34.218Z,103059.71
2019-02-22T03:38:36.881Z,103068.42
2019-02-22T03:43:39.551Z,103078.12
2019-02-22T03:48:42.201Z,103089.11
2019-02-22T03:53:46.521Z,103095.73
2019-02-22T03:58:49.200Z,103116.02
2019-02-22T04:03:51.856Z,103125.63
2019-02-22T04:08:54.537Z,103133.17
2019-02-22T04:13:57.211Z,103154.13
2019-02-22T04:18:59.869Z,103168.30
2019-02-22T04:24:02.534Z,103184.12
2019-02-22T04:29:05.168Z,103194.12
2019-02-22T04:34:07.837Z,103205.30
2019-02-22T04:39:10.501Z,103218.17
2019-02-22T04:44:13.174Z,103233.50
2019-02-22T04:49:15.860Z,103251.52
2019-02-22T04:54:18.560Z,103250.13
2019-02-22T04:59:21.229Z,103266.94
2019-02-22T05:04:23.976Z,103284.10
2019-02-22T05:09:26.663Z,103294.06
2019-02-22T05:14:29.329Z,103305.70
2019-02-22T05:19:31.992Z,103312.86
2019-02-22T05:24:34.657Z,103313.75
2019-02-22T05:29:37.497Z,103338.70
2019-02-22T05:34:40.163Z,103338.38
2019-02-22T05:39:42.902Z,103348.81
2019-02-22T05:44:45.635Z,103353.86
2019-02-22T05:49:48.303Z,103381.42
2019-02-22T05:54:50.973Z,103404.09
2019-02-22T05:59:53.666Z,103422.05
2019-02-22T06:04:56.328Z,103437.84
2019-02-22T06:09:59.077Z,103452.12
2019-02-22T06:15:01.747Z,103474.47
2019-02-22T06:20:06.202Z,103472.43
2019-02-22T06:25:09.060Z,103490.37
2019-02-22T06:30:11.714Z,103508.28
2019-02-22T06:35:14.387Z,103529.91
2019-02-22T06:40:17.032Z,103551.52
2019-02-22T06:45:19.733Z,103571.91
2019-02-22T06:50:33.169Z,103586.25
2019-02-22T06:55:26.708Z,103599.63
2019-02-22T07:00:29.384Z,103617.28
2019-02-22T07:05:32.093Z,103631.71
2019-02-22T07:10:36.396Z,103641.33
2019-02-22T07:15:39.046Z,103659.35
2019-02-22T07:20:41.721Z,103675.94
2019-02-22T07:25:44.382Z,103688.18
2019-02-22T07:30:47.048Z,103705.46
2019-02-22T07:35:49.719Z,103716.31
2019-02-22T07:40:52.361Z,103728.88
2019-02-22T07:45:55.024Z,103739.96
2019-02-22T07:50:58.564Z,103748.35
2019-02-22T07:56:01.290Z,103762.47
2019-02-22T08:01:03.936Z,103773.30
2019-02-22T08:06:06.608Z,103789.86
2019-02-22T08:11:09.266Z,103785.06
2019-02-22T08:16:11.914Z,103808.63
2019-02-22T08:21:14.619Z,103815.72
2019-02-22T08:26:17.281Z,103828.53
2019-02-22T08:31:19.940Z,103839.13
2019-02-22T08:36:22.602Z,103863.52
2019-02-22T08:41:25.246Z,103861.05
2019-02-22T08:46:27.931Z,103857.08
2019-02-22T08:51:30.581Z,103874.98
2019-02-22T08:56:33.301Z,103877.88
2019-02-22T09:01:35.972Z,103876.38
2019-02-22T09:06:38.656Z,103890.65
2019-02-22T09:11:41.335Z,103904.10
2019-02-22T09:16:44.031Z,103913.44
2019-02-22T09:21:46.727Z,103920.73
2019-02-22T09:26:49.411Z,103934.05
2019-02-22T09:31:52.103Z,103935.02
2019-02-22T09:36:54.800Z,103949.30
2019-02-22T09:41:57.618Z,103965.63
2019-02-22T09:47:00.303Z,103961.06
2019-02-22T09:52:03.005Z,103957.88
2019-02-22T09:57:05.741Z,103963.50
2019-02-22T10:02:08.420Z,103981.75
2019-02-22T10:07:11.113Z,103989.20
2019-02-22T10:12:13.760Z,103991.00
2019-02-22T10:17:16.420Z,103984.94
2019-02-22T10:22:19.097Z,103973.28
2019-02-22T10:27:21.768Z,103988.61
2019-02-22T10:32:24.411Z,103977.38
2019-02-22T10:37:27.071Z,103988.05
2019-02-22T10:42:29.738Z,103996.78
2019-02-22T10:47:32.405Z,104013.91
2019-02-22T10:52:35.084Z,104006.97
2019-02-22T10:57:37.853Z,103998.59
2019-02-22T11:02:40.533Z,104011.41
2019-02-22T11:07:43.195Z,104016.05
2019-02-22T11:12:48.054Z,104015.64
2019-02-22T11:17:50.715Z,104026.17
2019-02-22T11:22:53.379Z,104024.64
2019-02-22T11:27:56.049Z,104027.91
2019-02-22T11:32:58.711Z,104034.17
2019-02-22T11:38:01.363Z,104037.43
2019-02-22T11:43:04.096Z,104030.42
2019-02-22T11:48:09.434Z,104039.06
2019-02-22T11:53:11.081Z,104045.45
2019-02-22T11:58:13.756Z,104048.02
2019-02-22T12:03:24.700Z,104049.48
2019-02-22T12:08:20.725Z,104051.38
2019-02-22T12:13:23.433Z,104063.95
2019-02-22T12:18:26.216Z,104071.80
2019-02-22T12:23:28.880Z,104083.56
2019-02-22T12:28:31.530Z,104089.51
2019-02-22T12:33:34.184Z,104085.53
2019-02-22T12:38:36.828Z,104087.67
2019-02-22T12:43:39.495Z,104089.66
2019-02-22T12:48:42.172Z,104099.16
2019-02-22T12:53:44.846Z,104100.15
2019-02-22T12:59:13.996Z,104115.25
2019-02-22T13:04:16.676Z,104114.94
2019-02-22T13:09:19.381Z,104116.20
2019-02-22T13:14:22.062Z,104121.94
2019-02-22T13:19:24.725Z,104126.23
2019-02-22T13:24:27.412Z,104138.36
2019-02-22T13:29:30.070Z,104140.07
2019-02-22T13:34:32.736Z,104139.95
2019-02-22T13:39:35.405Z,104141.76
2019-02-22T13:44:38.962Z,104147.89
2019-02-22T13:49:41.629Z,104151.61
2019-02-22T13:54:44.577Z,104161.45
2019-02-22T13:59:48.121Z,104144.23
2019-02-22T14:04:50.908Z,104137.87
2019-02-22T14:09:53.571Z,104132.36
2019-02-22T14:14:56.232Z,104141.87
2019-02-22T14:19:58.889Z,104142.09
2019-02-22T14:25:01.564Z,104152.94
2019-02-22T14:30:05.844Z,104156.91
2019-02-22T14:35:08.512Z,104150.78
2019-02-22T14:40:11.629Z,104156.94
2019-02-22T14:45:14.281Z,104155.93
2019-02-22T14:50:17.623Z,104157.14
2019-02-22T14:55:20.296Z,104163.64
2019-02-22T15:00:22.972Z,104168.37
2019-02-22T15:05:25.633Z,104165.91
2019-02-22T15:10:28.289Z,104163.39
2019-02-22T15:15:38.511Z,104157.67
2019-02-22T15:20:41.167Z,104157.51
2019-02-22T15:25:44.165Z,104160.44
2019-02-22T15:30:46.873Z,104175.70
2019-02-22T15:35:49.502Z,104175.17
2019-02-22T15:40:52.177Z,104185.81
2019-02-22T15:45:54.820Z,104189.45
2019-02-22T15:50:57.488Z,104191.75
2019-02-22T15:56:00.167Z,104197.41
2019-02-22T16:01:02.906Z,104197.02
2019-02-22T16:06:05.632Z,104196.17
2019-02-22T16:11:08.288Z,104208.83
2019-02-22T16:16:10.960Z,104209.69
2019-02-22T16:21:13.644Z,104211.76
2019-02-22T16:26:17.985Z,104225.09
2019-02-22T16:31:20.731Z,104224.53
2019-02-22T16:36:23.380Z,104225.50
2019-02-22T16:41:26.055Z,104223.77
2019-02-22T16:46:34.860Z,104226.89
2019-02-22T16:51:33.004Z,104239.53
2019-02-22T16:56:35.656Z,104249.25
2019-02-22T17:01:38.356Z,104255.36
2019-02-22T17:06:41.011Z,104261.95
2019-02-22T17:11:43.688Z,104278.95
2019-02-22T17:16:46.382Z,104290.31
2019-02-22T17:21:49.046Z,104286.04
2019-02-22T17:26:51.685Z,104282.88
2019-02-22T17:31:54.332Z,104295.27
2019-02-22T17:36:57.000Z,104309.67
2019-02-22T17:41:59.751Z,104324.53
2019-02-22T17:47:02.489Z,104331.95
2019-02-22T17:52:05.138Z,104332.58
2019-02-22T17:57:07.807Z,104337.58
2019-02-22T18:02:10.483Z,104335.08
2019-02-22T18:07:13.165Z,104330.36
2019-02-22T18:12:15.819Z,104342.84
2019-02-22T18:17:18.484Z,104346.11
2019-02-22T18:22:25.797Z,104350.99
2019-02-22T18:27:25.472Z,104361.27
2019-02-22T18:32:28.143Z,104358.68
2019-02-22T18:37:30.827Z,104360.97
2019-02-22T18:42:33.557Z,104362.53
2019-02-22T18:47:36.222Z,104374.24
2019-02-22T18:52:38.957Z,104359.53
2019-02-22T18:57:41.629Z,104353.75
2019-02-22T19:02:44.293Z,104360.79
2019-02-22T19:07:46.951Z,104352.47
2019-02-22T19:12:49.604Z,104354.47
2019-02-22T19:17:52.295Z,104372.14
2019-02-22T19:22:54.950Z,104386.63
2019-02-22T19:27:57.600Z,104368.66
2019-02-22T19:33:00.270Z,104373.36
2019-02-22T19:38:02.922Z,104380.23
2019-02-22T19:43:05.652Z,104383.98
2019-02-22T19:48:08.353Z,104399.36
2019-02-22T19:53:11.008Z,104401.65
2019-02-22T19:58:13.660Z,104391.22
2019-02-22T20:03:16.323Z,104394.36
2019-02-22T20:08:19.000Z,104394.91
2019-02-22T20:13:21.664Z,104398.58
2019-02-22T20:18:24.309Z,104385.34
2019-02-22T20:23:26.962Z,104386.19
2019-02-22T20:28:29.632Z,104393.67
2019-02-22T20:33:32.362Z,104400.66
2019-02-22T20:38:35.069Z,104403.73
2019-02-22T20:43:37.779Z,104399.70
2019-02-22T20:48:40.458Z,104402.95
2019-02-22T20:53:43.118Z,104417.37
2019-02-22T20:58:45.747Z,104428.34
2019-02-22T21:03:48.415Z,104427.20
2019-02-22T21:08:51.080Z,104442.45
2019-02-22T21:13:53.784Z,104442.94
2019-02-22T21:18:56.447Z,104443.23
2019-02-22T21:23:59.115Z,104449.63
2019-02-22T21:29:01.791Z,104466.69
2019-02-22T21:34:04.468Z,104467.30
2019-02-22T21:39:07.128Z,104468.38
2019-02-22T21:44:09.788Z,104462.41
2019-02-22T21:49:12.449Z,104483.72
2019-02-22T21:54:15.104Z,104485.70
2019-02-22T21:59:17.755Z,104480.64
2019-02-22T22:04:20.423Z,104483.11
2019-02-22T22:09:23.069Z,104486.30
2019-02-22T22:14:25.719Z,104484.55
2019-02-22T22:19:28.379Z,104477.22
2019-02-22T22:24:31.092Z,104482.69
2019-02-22T22:29:33.756Z,104499.95
2019-02-22T22:34:36.427Z,104504.22
2019-02-22T22:39:39.107Z,104518.51
2019-02-22T22:44:41.770Z,104501.08
2019-02-22T22:49:44.420Z,104493.73
2019-02-22T22:54:47.067Z,104505.72
2019-02-22T23:00:04.404Z,104513.08
2019-02-22T23:05:09.023Z,104516.39
2019-02-22T23:10:11.756Z,104520.97
2019-02-22T23:15:14.430Z,104522.89
2019-02-22T23:20:17.096Z,104529.83
2019-02-22T23:25:19.803Z,104521.99
2019-02-22T23:30:22.506Z,104504.53
2019-02-22T23:35:25.182Z,104492.59
2019-02-22T23:40:27.816Z,104477.34
2019-02-22T23:45:30.524Z,104488.50
2019-02-22T23:50:33.187Z,104498.62
2019-02-22T23:55:35.863Z,104500.13
